Williams Township, Pennsylvania
Current Conditions -  °F | °C
As of 9:51 PM on Tuesday 21 Oct 2014 (Local Time) from KABE Reporting Station
Overcast Overcast  
Wind Chill: 55°   Ceiling: 4800
Heat Index: 55°   Visibility: 10mi
Dew Point: 49°   Wind: 5mph
Humidity: 80%   Direction: 80°E
Pressure: 29.91"   Gusts: NA
Location:  40.6369°N, 75.2272°W
Report Text: KABE 220151Z 08004KT 10SM BKN048 OVC055 13/09 A2991 RMK AO2 SLP130 T01280094
Loading
Personal Weather Stations






























Interactive Weather Map
Tropical Storm Tracking
New forecast layout! Learn more

10-Day Weather Forecast

Advertisements
Track Severe Weather on mobile